createdAt,value
2019-04-23T00:00:29.346Z,0.0000
2019-04-23T00:01:58.376Z,0.0000
2019-04-23T00:02:52.427Z,0.0000
2019-04-23T00:03:51.609Z,0.0000
2019-04-23T00:04:59.736Z,0.0000
2019-04-23T00:06:19.028Z,0.0000
2019-04-23T00:07:44.349Z,0.0000
2019-04-23T00:08:39.597Z,0.0000
2019-04-23T00:09:39.877Z,0.0000
2019-04-23T00:10:43.036Z,0.0000
2019-04-23T00:11:51.414Z,0.0000
2019-04-23T00:14:15.162Z,0.0000
2019-04-23T00:15:35.632Z,0.0000
2019-04-23T00:16:26.492Z,0.0000
2019-04-23T00:17:37.351Z,0.0000
2019-04-23T00:18:42.658Z,0.0000
2019-04-23T00:19:50.228Z,0.0000
2019-04-23T00:20:57.846Z,0.0000
2019-04-23T00:22:11.000Z,0.0000
2019-04-23T00:23:11.056Z,0.0000
2019-04-23T00:24:28.215Z,0.0000
2019-04-23T00:25:45.026Z,0.0000
2019-04-23T00:26:36.600Z,0.0000
2019-04-23T00:27:51.825Z,0.0000
2019-04-23T00:28:58.892Z,0.0000
2019-04-23T00:31:13.320Z,0.0000
2019-04-23T00:32:23.139Z,0.0000
2019-04-23T00:33:25.607Z,0.0000
2019-04-23T00:34:36.152Z,0.0000
2019-04-23T00:35:44.079Z,0.0000
2019-04-23T00:36:51.509Z,0.0000
2019-04-23T00:37:59.981Z,0.0000
2019-04-23T00:39:06.280Z,0.0000
2019-04-23T00:40:10.836Z,0.0000
2019-04-23T00:41:25.352Z,0.0000
2019-04-23T00:42:36.797Z,0.0000
2019-04-23T00:43:35.924Z,0.0000
2019-04-23T00:44:46.263Z,0.0000
2019-04-23T00:45:53.526Z,0.0000
2019-04-23T00:47:06.977Z,0.0000
2019-04-23T00:48:17.086Z,0.0000
2019-04-23T00:49:21.222Z,0.0000
2019-04-23T00:50:48.011Z,0.0000
2019-04-23T00:51:33.093Z,0.0000
2019-04-23T00:52:38.884Z,0.0000
2019-04-23T00:53:43.917Z,0.0000
2019-04-23T00:55:04.366Z,0.0000
2019-04-23T00:56:19.032Z,0.0000
2019-04-23T00:57:22.592Z,0.0000
2019-04-23T00:59:27.828Z,0.0000
2019-04-23T01:00:41.973Z,0.0000
2019-04-23T01:01:49.581Z,0.0000
2019-04-23T01:02:53.219Z,0.0000
2019-04-23T01:04:02.251Z,0.0000
2019-04-23T01:05:14.834Z,0.0000
2019-04-23T01:06:19.356Z,0.0000
2019-04-23T01:07:24.275Z,0.0000
2019-04-23T01:08:31.764Z,0.0000
2019-04-23T01:09:49.244Z,0.0000
2019-04-23T01:10:52.282Z,0.0000
2019-04-23T01:12:03.088Z,0.0000
2019-04-23T01:13:08.868Z,0.0000
2019-04-23T01:14:15.803Z,0.0000
2019-04-23T01:15:26.254Z,0.0000
2019-04-23T01:16:28.278Z,0.0000
2019-04-23T01:17:39.852Z,0.0000
2019-04-23T01:19:49.515Z,0.0000
2019-04-23T01:20:53.521Z,0.0000
2019-04-23T01:21:47.512Z,0.0000
2019-04-23T01:22:50.907Z,0.0000
2019-04-23T01:23:59.833Z,0.0000
2019-04-23T01:25:11.041Z,0.0000
2019-04-23T01:26:30.855Z,0.0000
2019-04-23T01:27:55.836Z,0.0000
2019-04-23T01:28:57.415Z,0.0000
2019-04-23T01:30:04.742Z,0.0000
2019-04-23T01:31:09.236Z,0.0000
2019-04-23T01:32:18.753Z,0.0000
2019-04-23T01:33:29.628Z,0.0000
2019-04-23T01:34:31.282Z,0.0000
2019-04-23T01:35:36.426Z,0.0000
2019-04-23T01:36:46.458Z,0.0000
2019-04-23T01:37:55.675Z,0.0000
2019-04-23T01:39:00.239Z,0.0000
2019-04-23T01:40:12.135Z,0.0000
2019-04-23T01:41:20.204Z,0.0000
2019-04-23T01:42:38.876Z,0.0000
2019-04-23T01:43:36.534Z,0.0000
2019-04-23T01:44:50.390Z,0.0000
2019-04-23T01:45:40.944Z,0.0000
2019-04-23T01:47:00.862Z,0.0000
2019-04-23T01:48:17.875Z,0.0000
2019-04-23T01:49:18.366Z,0.0000
2019-04-23T01:51:34.460Z,0.0000
2019-04-23T01:52:50.567Z,0.0000
2019-04-23T01:53:49.577Z,0.0000
2019-04-23T01:54:54.958Z,0.0000
2019-04-23T01:56:20.392Z,0.0000
2019-04-23T01:57:16.783Z,0.0000
2019-04-23T01:58:37.039Z,0.0000
2019-04-23T01:59:24.501Z,0.0000
2019-04-23T02:00:35.563Z,0.0000
2019-04-23T02:01:47.589Z,0.0000
2019-04-23T02:02:57.610Z,0.0000
2019-04-23T02:04:03.557Z,0.0000
2019-04-23T02:06:16.646Z,0.0000
2019-04-23T02:07:29.564Z,0.0000
2019-04-23T02:08:28.364Z,0.0000
2019-04-23T02:09:43.490Z,0.0000
2019-04-23T02:10:53.633Z,0.0000
2019-04-23T02:11:57.759Z,0.0000
2019-04-23T02:15:24.994Z,0.0000
2019-04-23T02:16:32.776Z,0.0000
2019-04-23T02:17:38.639Z,0.0000
2019-04-23T02:18:44.152Z,0.0000
2019-04-23T02:19:51.753Z,0.0000
2019-04-23T02:20:59.503Z,0.0000
2019-04-23T02:22:05.022Z,0.0000
2019-04-23T02:23:19.878Z,0.0000
2019-04-23T02:24:24.738Z,0.0000
2019-04-23T02:26:38.476Z,0.0000
2019-04-23T02:27:54.414Z,0.0000
2019-04-23T02:30:15.529Z,0.0000
2019-04-23T02:34:51.571Z,0.0000
2019-04-23T02:35:55.771Z,0.0000
2019-04-23T02:37:03.852Z,0.0000
2019-04-23T02:39:00.967Z,0.0000
2019-04-23T02:40:35.375Z,0.0000
2019-04-23T02:41:41.594Z,0.0000
2019-04-23T02:42:55.880Z,0.0000
2019-04-23T02:43:35.508Z,0.0000
2019-04-23T02:44:56.285Z,0.0000
2019-04-23T02:47:29.711Z,0.0000
2019-04-23T02:49:26.955Z,0.0000
2019-04-23T02:52:48.811Z,0.0000
2019-04-23T02:54:04.644Z,0.0000
2019-04-23T02:55:08.723Z,0.0000
2019-04-23T02:56:28.878Z,0.0000
2019-04-23T02:57:20.134Z,0.0000
2019-04-23T02:59:53.785Z,0.0000
2019-04-23T03:01:06.418Z,0.0000
2019-04-23T03:05:38.038Z,0.0000
2019-04-23T03:07:41.007Z,0.0000
2019-04-23T03:09:51.725Z,0.0000
2019-04-23T03:11:20.714Z,0.0000
2019-04-23T03:12:24.888Z,0.0000
2019-04-23T03:16:48.191Z,0.0000
2019-04-23T03:17:49.276Z,0.0000
2019-04-23T03:18:57.597Z,0.0000
2019-04-23T03:20:11.189Z,0.0000
2019-04-23T03:22:14.738Z,0.0000
2019-04-23T03:23:34.530Z,0.0000
2019-04-23T03:24:45.833Z,0.0000
2019-04-23T03:25:35.869Z,0.0000
2019-04-23T03:29:15.858Z,0.0000
2019-04-23T03:32:48.379Z,0.0000
2019-04-23T03:34:42.467Z,0.0000
2019-04-23T03:38:18.878Z,0.0000
2019-04-23T03:39:18.717Z,0.0000
2019-04-23T03:40:43.137Z,0.0000
2019-04-23T03:42:43.102Z,0.0000
2019-04-23T03:47:18.543Z,0.0000
2019-04-23T03:48:28.672Z,0.0000
2019-04-23T03:49:32.853Z,0.0000
2019-04-23T03:50:36.015Z,0.0000
2019-04-23T03:51:52.269Z,0.0000
2019-04-23T03:52:44.674Z,0.0000
2019-04-23T03:55:10.264Z,0.0000
2019-04-23T03:56:26.552Z,0.0000
2019-04-23T03:57:26.945Z,0.0000
2019-04-23T04:01:07.179Z,0.0000
2019-04-23T04:03:27.016Z,0.0000
2019-04-23T04:05:31.406Z,0.0000
2019-04-23T04:08:50.727Z,0.0000
2019-04-23T04:11:25.708Z,0.0000
2019-04-23T04:12:19.139Z,0.0000
2019-04-23T04:13:22.222Z,0.0000
2019-04-23T04:15:53.327Z,0.0000
2019-04-23T04:16:51.069Z,0.0000
2019-04-23T04:18:03.849Z,0.0000
2019-04-23T04:21:28.138Z,0.0000
2019-04-23T04:22:37.490Z,0.0000
2019-04-23T04:23:37.767Z,0.0000
2019-04-23T04:25:08.803Z,5.6250
2019-04-23T04:25:47.681Z,5.6250
2019-04-23T04:29:11.664Z,5.6250
2019-04-23T04:30:21.578Z,5.6250
2019-04-23T04:31:37.438Z,5.6250
2019-04-23T04:32:42.814Z,5.6250
2019-04-23T04:35:14.130Z,11.2500
2019-04-23T04:36:09.496Z,11.2500
2019-04-23T04:38:34.883Z,11.2500
2019-04-23T04:39:26.636Z,16.8750
2019-04-23T04:40:45.670Z,16.8750
2019-04-23T04:41:44.479Z,16.8750
2019-04-23T04:43:02.015Z,16.8750
2019-04-23T04:44:04.909Z,22.5000
2019-04-23T04:45:13.631Z,22.5000
2019-04-23T04:46:21.203Z,22.5000
2019-04-23T04:47:33.888Z,28.1250
2019-04-23T04:49:48.611Z,33.7500
2019-04-23T04:52:03.167Z,33.7500
2019-04-23T04:53:09.892Z,39.3750
2019-04-23T04:54:21.516Z,39.3750
2019-04-23T04:55:21.515Z,39.3750
2019-04-23T04:57:37.241Z,45.0000
2019-04-23T05:05:55.531Z,67.5000
2019-04-23T05:06:46.484Z,73.1250
2019-04-23T05:08:56.614Z,78.7500
2019-04-23T05:14:35.415Z,78.7500
2019-04-23T05:15:39.075Z,78.7500
2019-04-23T05:18:00.307Z,78.7500
2019-04-23T05:22:26.768Z,90.0000
2019-04-23T05:23:33.438Z,95.6250
2019-04-23T05:25:44.742Z,101.2500
2019-04-23T05:26:53.369Z,106.8750
2019-04-23T05:30:22.610Z,106.8750
2019-04-23T05:31:23.261Z,112.5000
2019-04-23T05:32:36.737Z,112.5000
2019-04-23T05:33:46.471Z,123.7500
2019-04-23T05:34:48.321Z,129.3750
2019-04-23T05:36:22.849Z,135.0000
2019-04-23T05:37:06.463Z,140.6250
2019-04-23T05:38:29.200Z,151.8750
2019-04-23T05:39:31.314Z,151.8750
2019-04-23T05:40:37.953Z,157.5000
2019-04-23T05:42:46.842Z,163.1250
2019-04-23T05:45:00.595Z,163.1250
2019-04-23T05:46:17.957Z,163.1250
2019-04-23T05:47:25.473Z,157.5000
2019-04-23T05:48:23.370Z,157.5000
2019-04-23T05:49:31.664Z,151.8750
2019-04-23T05:50:50.577Z,151.8750
2019-04-23T05:51:57.680Z,157.5000
2019-04-23T05:53:05.915Z,163.1250
2019-04-23T05:54:09.118Z,168.7500
2019-04-23T05:55:13.658Z,174.3750
2019-04-23T05:56:24.269Z,180.0000
2019-04-23T05:57:40.372Z,180.0000
2019-04-23T05:58:43.706Z,185.6250
2019-04-23T05:59:51.654Z,185.6250
2019-04-23T06:01:11.430Z,191.2500
2019-04-23T06:02:18.247Z,191.2500
2019-04-23T06:03:16.003Z,196.8750
2019-04-23T06:04:27.099Z,196.8750
2019-04-23T06:05:34.266Z,202.5000
2019-04-23T06:07:49.417Z,213.7500
2019-04-23T06:11:16.989Z,230.6250
2019-04-23T06:12:13.568Z,236.2500
2019-04-23T06:13:26.345Z,241.8750
2019-04-23T06:14:41.030Z,253.1250
2019-04-23T06:15:57.783Z,258.7500
2019-04-23T06:17:02.133Z,270.0000
2019-04-23T06:18:02.245Z,275.6250
2019-04-23T06:20:24.978Z,292.5000
2019-04-23T06:21:25.264Z,298.1250
2019-04-23T06:22:35.211Z,315.0000
2019-04-23T06:23:43.677Z,326.2500
2019-04-23T06:24:45.153Z,337.5000
2019-04-23T06:27:06.747Z,371.2500
2019-04-23T06:28:14.518Z,382.5000
2019-04-23T06:30:34.251Z,405.0000
2019-04-23T06:31:40.879Z,416.2500
2019-04-23T06:32:44.763Z,421.8750
2019-04-23T06:33:54.541Z,427.5000
2019-04-23T06:34:58.167Z,427.5000
2019-04-23T06:37:22.172Z,444.3750
2019-04-23T06:38:46.098Z,450.0000
2019-04-23T06:39:39.639Z,461.2500
2019-04-23T06:40:44.949Z,466.8750
2019-04-23T06:41:52.776Z,472.5000
2019-04-23T06:43:01.274Z,472.5000
2019-04-23T06:45:06.263Z,472.5000
2019-04-23T06:46:20.142Z,478.1250
2019-04-23T06:47:27.739Z,483.7500
2019-04-23T06:48:34.870Z,500.6250
2019-04-23T06:49:44.172Z,500.6250
2019-04-23T06:50:59.265Z,511.8750
2019-04-23T06:53:08.129Z,528.7500
2019-04-23T06:54:19.068Z,545.6250
2019-04-23T06:55:25.499Z,556.8750
2019-04-23T06:56:37.491Z,573.7500
2019-04-23T06:57:38.185Z,601.8750
2019-04-23T06:58:43.259Z,607.5000
2019-04-23T06:59:59.195Z,618.7500
2019-04-23T07:02:17.084Z,635.6250
2019-04-23T07:03:23.277Z,641.2500
2019-04-23T07:05:40.938Z,663.7500
2019-04-23T07:06:47.187Z,658.1250
2019-04-23T07:07:58.369Z,669.3750
2019-04-23T07:09:07.867Z,686.2500
2019-04-23T07:10:03.945Z,703.1250
2019-04-23T07:11:23.615Z,714.3750
2019-04-23T07:12:21.977Z,736.8750
2019-04-23T07:13:45.001Z,691.8750
2019-04-23T07:14:47.678Z,691.8750
2019-04-23T07:16:52.559Z,680.6250
2019-04-23T07:18:04.047Z,675.0000
2019-04-23T07:19:18.576Z,669.3750
2019-04-23T07:20:21.565Z,669.3750
2019-04-23T07:22:46.879Z,675.0000
2019-04-23T07:23:53.884Z,675.0000
2019-04-23T07:24:57.590Z,680.6250
2019-04-23T07:26:09.308Z,686.2500
2019-04-23T07:27:03.270Z,686.2500
2019-04-23T07:28:18.020Z,680.6250
2019-04-23T07:29:25.343Z,680.6250
2019-04-23T07:31:46.040Z,663.7500
2019-04-23T07:32:49.598Z,658.1250
2019-04-23T07:34:01.061Z,658.1250
2019-04-23T07:35:10.443Z,658.1250
2019-04-23T07:36:17.566Z,658.1250
2019-04-23T07:37:19.004Z,663.7500
2019-04-23T07:38:41.711Z,663.7500
2019-04-23T07:39:45.653Z,675.0000
2019-04-23T07:40:41.126Z,680.6250
2019-04-23T07:41:56.815Z,697.5000
2019-04-23T07:43:03.442Z,708.7500
2019-04-23T07:44:12.822Z,731.2500
2019-04-23T07:45:19.320Z,742.5000
2019-04-23T07:46:55.679Z,765.0000
2019-04-23T07:47:33.704Z,787.5000
2019-04-23T07:48:34.401Z,793.1250
2019-04-23T07:50:01.844Z,804.3750
2019-04-23T07:50:55.630Z,821.2500
2019-04-23T07:52:11.004Z,838.1250
2019-04-23T07:54:22.755Z,860.6250
2019-04-23T07:55:34.564Z,866.2500
2019-04-23T07:56:37.288Z,877.5000
2019-04-23T07:57:52.124Z,894.3750
2019-04-23T07:58:44.765Z,922.5000
2019-04-23T08:00:02.417Z,950.6250
2019-04-23T08:01:06.931Z,978.7500
2019-04-23T08:02:23.473Z,990.0000
2019-04-23T08:03:27.359Z,1006.8750
2019-04-23T08:04:39.441Z,1006.8750
2019-04-23T08:05:38.693Z,1012.5000
2019-04-23T08:06:46.434Z,1029.3750
2019-04-23T08:07:58.779Z,1040.6250
2019-04-23T08:09:02.344Z,1046.2500
2019-04-23T08:10:18.914Z,1051.8750
2019-04-23T08:11:33.210Z,1029.3750
2019-04-23T08:12:31.535Z,1006.8750
2019-04-23T08:13:42.042Z,990.0000
2019-04-23T08:14:48.146Z,990.0000
2019-04-23T08:15:53.932Z,1012.5000
2019-04-23T08:17:02.077Z,1006.8750
2019-04-23T08:18:13.689Z,1012.5000
2019-04-23T08:19:15.445Z,1018.1250
2019-04-23T08:20:32.286Z,1018.1250
2019-04-23T08:22:40.643Z,1040.6250
2019-04-23T08:23:49.120Z,1080.0000
2019-04-23T08:25:12.833Z,1119.3750
2019-04-23T08:26:13.828Z,1141.8750
2019-04-23T08:27:12.922Z,1141.8750
2019-04-23T08:28:34.032Z,1141.8750
2019-04-23T08:30:33.305Z,1108.1250
2019-04-23T08:31:52.775Z,1085.6250
2019-04-23T08:32:52.136Z,1063.1250
2019-04-23T08:34:05.758Z,1040.6250
2019-04-23T08:35:06.377Z,1035.0000
2019-04-23T08:36:23.746Z,1035.0000
2019-04-23T08:37:36.034Z,1029.3750
2019-04-23T08:40:57.533Z,1012.5000
2019-04-23T08:43:07.531Z,1023.7500
2019-04-23T08:44:23.977Z,1051.8750
2019-04-23T08:46:33.049Z,1046.2500
2019-04-23T08:47:37.749Z,1012.5000
2019-04-23T08:50:09.591Z,933.7500
2019-04-23T08:50:57.917Z,900.0000
2019-04-23T08:52:12.178Z,866.2500
2019-04-23T08:53:29.659Z,821.2500
2019-04-23T08:54:37.060Z,781.8750
2019-04-23T08:56:50.025Z,720.0000
2019-04-23T08:57:45.352Z,697.5000
2019-04-23T08:58:59.330Z,697.5000
2019-04-23T09:00:04.015Z,680.6250
2019-04-23T09:01:10.668Z,680.6250
2019-04-23T09:02:30.568Z,691.8750
2019-04-23T09:04:42.069Z,720.0000
2019-04-23T09:05:52.670Z,742.5000
2019-04-23T09:07:00.161Z,787.5000
2019-04-23T09:08:07.195Z,855.0000
2019-04-23T09:09:16.054Z,928.1250
2019-04-23T09:10:20.841Z,973.1250
2019-04-23T09:11:41.054Z,1023.7500
2019-04-23T09:12:35.112Z,1068.7500
2019-04-23T09:14:51.236Z,1164.3750
2019-04-23T09:15:55.889Z,1350.0000
2019-04-23T09:17:06.881Z,1485.0000
2019-04-23T09:18:16.036Z,2053.1250
2019-04-23T09:19:23.284Z,1636.8750
2019-04-23T09:21:32.720Z,978.7500
2019-04-23T09:24:03.844Z,1068.7500
2019-04-23T09:25:06.024Z,990.0000
2019-04-23T09:26:02.254Z,939.3750
2019-04-23T09:27:22.169Z,838.1250
2019-04-23T09:28:38.591Z,804.3750
2019-04-23T09:29:42.449Z,798.7500
2019-04-23T09:30:42.926Z,793.1250
2019-04-23T09:33:02.421Z,821.2500
2019-04-23T09:34:08.004Z,855.0000
2019-04-23T09:35:20.194Z,933.7500
2019-04-23T09:36:22.372Z,1018.1250
2019-04-23T09:38:31.892Z,1147.5000
2019-04-23T09:41:08.720Z,1209.3750
2019-04-23T09:42:02.328Z,1198.1250
2019-04-23T09:45:28.086Z,1091.2500
2019-04-23T09:46:32.596Z,1063.1250
2019-04-23T09:47:48.296Z,1040.6250
2019-04-23T09:48:54.693Z,1012.5000
2019-04-23T09:50:06.461Z,984.3750
2019-04-23T09:51:02.450Z,973.1250
2019-04-23T09:52:14.611Z,950.6250
2019-04-23T09:53:24.762Z,945.0000
2019-04-23T09:54:37.874Z,939.3750
2019-04-23T09:58:00.630Z,967.5000
2019-04-23T09:59:08.836Z,995.6250
2019-04-23T10:00:10.752Z,1057.5000
2019-04-23T10:01:20.500Z,1113.7500
2019-04-23T10:02:17.510Z,1141.8750
2019-04-23T10:03:21.144Z,1170.0000
2019-04-23T10:04:28.155Z,1209.3750
2019-04-23T10:05:32.585Z,1226.2500
2019-04-23T10:06:34.553Z,1231.8750
2019-04-23T10:07:48.630Z,1260.0000
2019-04-23T10:08:52.249Z,1276.8750
2019-04-23T10:09:53.532Z,1288.1250
2019-04-23T10:10:57.475Z,1288.1250
2019-04-23T10:12:00.992Z,1288.1250
2019-04-23T10:13:04.377Z,1282.5000
2019-04-23T10:14:08.281Z,1282.5000
2019-04-23T10:15:21.522Z,1305.0000
2019-04-23T10:16:21.439Z,1389.3750
2019-04-23T10:17:28.490Z,1451.2500
2019-04-23T10:18:31.311Z,1372.5000
2019-04-23T10:19:35.037Z,1496.2500
2019-04-23T10:20:38.588Z,1462.5000
2019-04-23T10:21:43.653Z,1575.0000
2019-04-23T10:22:48.240Z,1636.8750
2019-04-23T10:23:51.653Z,1575.0000
2019-04-23T10:24:55.395Z,1642.5000
2019-04-23T10:25:58.362Z,1906.8750
2019-04-23T10:27:01.986Z,2081.2500
2019-04-23T10:28:08.634Z,2176.8750
2019-04-23T10:29:14.049Z,1968.7500
2019-04-23T10:30:17.749Z,1693.1250
2019-04-23T10:31:22.767Z,1563.7500
2019-04-23T10:32:27.324Z,1541.2500
2019-04-23T10:33:31.682Z,1524.3750
2019-04-23T10:34:47.533Z,1445.6250
2019-04-23T10:35:51.521Z,1462.5000
2019-04-23T10:36:51.571Z,1614.3750
2019-04-23T10:38:03.722Z,2188.1250
2019-04-23T10:39:10.630Z,2615.6250
2019-04-23T10:40:15.383Z,2902.5000
2019-04-23T10:41:20.175Z,3076.8750
2019-04-23T10:42:24.701Z,3307.5000
2019-04-23T10:43:30.775Z,3481.8750
2019-04-23T10:44:35.371Z,3155.6250
2019-04-23T10:45:53.874Z,2503.1250
2019-04-23T10:47:12.237Z,2036.2500
2019-04-23T10:48:31.500Z,1665.0000
2019-04-23T10:50:46.166Z,1687.5000
2019-04-23T10:51:55.052Z,1968.7500
2019-04-23T10:53:05.120Z,2193.7500
2019-04-23T10:55:07.933Z,2160.0000
2019-04-23T10:56:22.352Z,2221.8750
2019-04-23T10:57:23.183Z,2295.0000
2019-04-23T10:58:35.286Z,2278.1250
2019-04-23T11:00:55.664Z,1906.8750
2019-04-23T11:02:15.623Z,1985.6250
2019-04-23T11:03:20.344Z,2711.2500
2019-04-23T11:04:32.858Z,2812.5000
2019-04-23T11:05:30.392Z,2542.5000
2019-04-23T11:06:47.171Z,2615.6250
2019-04-23T11:08:45.540Z,2013.7500
2019-04-23T11:09:58.702Z,2053.1250
2019-04-23T11:11:07.952Z,2424.3750
2019-04-23T11:12:23.413Z,4055.6250
2019-04-23T11:13:25.669Z,4426.8750
2019-04-23T11:14:37.718Z,4471.8750
2019-04-23T11:19:10.552Z,4820.6250
2019-04-23T11:20:17.669Z,4798.1250
2019-04-23T11:21:20.751Z,4691.2500
2019-04-23T11:23:30.909Z,4539.3750
2019-04-23T11:24:42.103Z,4376.2500
2019-04-23T11:25:42.826Z,4348.1250
2019-04-23T11:26:58.003Z,1811.2500
2019-04-23T11:28:11.038Z,1873.1250
2019-04-23T11:29:16.379Z,2188.1250
2019-04-23T11:30:27.452Z,3836.2500
2019-04-23T11:31:41.467Z,4483.1250
2019-04-23T11:32:47.119Z,4696.8750
2019-04-23T11:33:42.695Z,4348.1250
2019-04-23T11:36:18.967Z,4432.5000
2019-04-23T11:37:12.914Z,4201.8750
2019-04-23T11:38:43.631Z,4269.3750
2019-04-23T11:39:23.971Z,3611.2500
2019-04-23T11:40:32.817Z,2981.2500
2019-04-23T11:41:49.011Z,4325.6250
2019-04-23T11:42:49.445Z,3622.5000
2019-04-23T11:43:53.431Z,2711.2500
2019-04-23T11:45:09.607Z,2778.7500
2019-04-23T11:46:32.664Z,1867.5000
2019-04-23T11:48:51.966Z,1833.7500
2019-04-23T11:52:09.747Z,1563.7500
2019-04-23T11:52:57.138Z,1456.8750
2019-04-23T11:54:11.614Z,1276.8750
2019-04-23T11:55:26.136Z,1158.7500
2019-04-23T11:57:02.696Z,1406.2500
2019-04-23T11:59:55.046Z,1327.5000
2019-04-23T12:01:03.167Z,1288.1250
2019-04-23T12:02:01.148Z,1490.6250
2019-04-23T12:03:02.501Z,1530.0000
2019-04-23T12:04:39.590Z,1783.1250
2019-04-23T12:05:37.129Z,1811.2500
2019-04-23T12:06:36.948Z,1659.3750
2019-04-23T12:08:03.851Z,1608.7500
2019-04-23T12:08:50.998Z,1586.2500
2019-04-23T12:11:35.426Z,1670.6250
2019-04-23T12:12:21.720Z,1681.8750
2019-04-23T12:13:28.655Z,1648.1250
2019-04-23T12:14:37.314Z,1636.8750
2019-04-23T12:15:37.586Z,1636.8750
2019-04-23T12:17:05.613Z,1653.7500
2019-04-23T12:18:05.357Z,1710.0000
2019-04-23T12:19:28.403Z,1839.3750
2019-04-23T12:20:13.536Z,2182.5000
2019-04-23T12:21:22.115Z,2666.2500
2019-04-23T12:22:33.412Z,3532.5000
2019-04-23T12:23:48.559Z,3279.3750
2019-04-23T12:25:58.613Z,2711.2500
2019-04-23T12:27:00.698Z,2430.0000
2019-04-23T12:28:06.603Z,2255.6250
2019-04-23T12:29:23.735Z,2806.8750
2019-04-23T12:30:30.152Z,3003.7500
2019-04-23T12:31:34.836Z,2683.1250
2019-04-23T12:33:53.599Z,2655.0000
2019-04-23T12:36:05.317Z,4511.2500
2019-04-23T12:37:19.632Z,4466.2500
2019-04-23T12:38:31.234Z,4381.8750
2019-04-23T12:39:45.451Z,4123.1250
2019-04-23T12:40:37.843Z,3763.1250
2019-04-23T12:41:43.306Z,3290.6250
2019-04-23T12:43:57.945Z,2491.8750
2019-04-23T12:45:16.976Z,2317.5000
2019-04-23T12:46:17.693Z,2514.3750
2019-04-23T12:47:37.960Z,2205.0000
2019-04-23T12:52:02.448Z,2649.3750
2019-04-23T12:53:27.064Z,3262.5000
2019-04-23T12:54:20.791Z,4016.2500
2019-04-23T12:55:36.215Z,4533.7500
2019-04-23T12:56:41.588Z,3796.8750
2019-04-23T12:58:34.064Z,1400.6250
2019-04-23T12:59:50.071Z,1710.0000
2019-04-23T13:01:07.216Z,1963.1250
2019-04-23T13:02:16.401Z,2160.0000
2019-04-23T13:03:21.593Z,2401.8750
2019-04-23T13:04:24.616Z,2317.5000
2019-04-23T13:06:41.030Z,2953.1250
2019-04-23T13:08:54.577Z,2345.6250
2019-04-23T13:11:16.265Z,3740.6250
2019-04-23T13:12:32.625Z,4561.8750
2019-04-23T13:13:28.575Z,4651.8750
2019-04-23T13:14:44.062Z,4736.2500
2019-04-23T13:15:40.685Z,4618.1250
2019-04-23T13:17:02.054Z,4325.6250
2019-04-23T13:19:13.922Z,4747.5000
2019-04-23T13:21:46.246Z,4432.5000
2019-04-23T13:22:45.886Z,4190.6250
2019-04-23T13:24:49.009Z,3886.8750
2019-04-23T13:27:15.209Z,4432.5000
2019-04-23T13:28:27.692Z,4415.6250
2019-04-23T13:29:32.438Z,4370.6250
2019-04-23T13:30:44.741Z,4398.7500
2019-04-23T13:31:28.968Z,3976.8750
2019-04-23T13:33:51.509Z,3661.8750
2019-04-23T13:35:15.052Z,3498.7500
2019-04-23T13:37:26.225Z,3420.0000
2019-04-23T13:38:35.025Z,3493.1250
2019-04-23T13:39:35.318Z,3504.3750
2019-04-23T13:41:47.770Z,3481.8750
2019-04-23T13:43:01.145Z,3375.0000
2019-04-23T13:43:53.013Z,3285.0000
2019-04-23T13:45:33.346Z,3414.3750
2019-04-23T13:46:17.792Z,3391.8750
2019-04-23T13:47:38.495Z,3616.8750
2019-04-23T13:48:35.950Z,3645.0000
2019-04-23T13:49:52.738Z,3414.3750
2019-04-23T13:52:06.190Z,3560.6250
2019-04-23T13:53:28.979Z,3476.2500
2019-04-23T13:54:27.761Z,3172.5000
2019-04-23T13:55:21.750Z,3324.3750
2019-04-23T13:58:05.050Z,3436.8750
2019-04-23T13:58:51.609Z,3183.7500
2019-04-23T13:59:56.248Z,3183.7500
2019-04-23T14:01:25.931Z,3313.1250
2019-04-23T14:02:24.063Z,3481.8750
2019-04-23T14:03:30.320Z,3650.6250
2019-04-23T14:04:43.174Z,3780.0000
2019-04-23T14:06:47.513Z,3853.1250
2019-04-23T14:07:54.779Z,3616.8750
2019-04-23T14:08:59.689Z,3600.0000
2019-04-23T14:12:35.183Z,2295.0000
2019-04-23T14:14:47.571Z,1462.5000
2019-04-23T14:15:54.091Z,1063.1250
2019-04-23T14:17:04.532Z,866.2500
2019-04-23T14:18:48.953Z,787.5000
2019-04-23T14:19:06.897Z,748.1250
2019-04-23T14:20:21.598Z,714.3750
2019-04-23T14:21:39.166Z,697.5000
2019-04-23T14:24:08.748Z,675.0000
2019-04-23T14:25:04.634Z,663.7500
2019-04-23T14:27:17.908Z,646.8750
2019-04-23T14:28:22.161Z,663.7500
2019-04-23T14:29:30.607Z,658.1250
2019-04-23T14:30:38.993Z,652.5000
2019-04-23T14:32:54.303Z,652.5000
2019-04-23T14:35:21.596Z,624.3750
2019-04-23T14:36:17.670Z,601.8750
2019-04-23T14:37:17.230Z,590.6250
2019-04-23T14:39:40.999Z,562.5000
2019-04-23T14:41:53.680Z,551.2500
2019-04-23T14:43:08.844Z,545.6250
2019-04-23T14:44:11.055Z,540.0000
2019-04-23T14:45:29.692Z,534.3750
2019-04-23T14:47:38.132Z,551.2500
2019-04-23T14:48:47.975Z,551.2500
2019-04-23T14:49:59.431Z,540.0000
2019-04-23T14:50:56.913Z,517.5000
2019-04-23T14:52:09.281Z,500.6250
2019-04-23T14:54:35.831Z,455.6250
2019-04-23T14:56:38.378Z,421.8750
2019-04-23T14:57:52.840Z,399.3750
2019-04-23T14:59:04.720Z,388.1250
2019-04-23T15:00:03.385Z,382.5000
2019-04-23T15:01:22.236Z,371.2500
2019-04-23T15:02:22.928Z,365.6250
2019-04-23T15:03:32.541Z,360.0000
2019-04-23T15:04:34.034Z,354.3750
2019-04-23T15:05:52.767Z,343.1250
2019-04-23T15:08:02.145Z,331.8750
2019-04-23T15:10:18.563Z,320.6250
2019-04-23T15:13:36.849Z,303.7500
2019-04-23T15:14:56.307Z,298.1250
2019-04-23T15:16:03.128Z,292.5000
2019-04-23T15:17:00.461Z,292.5000
2019-04-23T15:18:14.109Z,286.8750
2019-04-23T15:20:23.115Z,275.6250
2019-04-23T15:21:45.273Z,270.0000
2019-04-23T15:22:54.453Z,270.0000
2019-04-23T15:25:09.377Z,264.3750
2019-04-23T15:26:49.495Z,258.7500
2019-04-23T15:28:07.604Z,253.1250
2019-04-23T15:29:12.885Z,258.7500
2019-04-23T15:30:35.555Z,253.1250
2019-04-23T15:31:52.422Z,253.1250
2019-04-23T15:33:04.207Z,253.1250
2019-04-23T15:34:09.288Z,253.1250
2019-04-23T15:35:23.437Z,253.1250
2019-04-23T15:38:55.857Z,253.1250
2019-04-23T15:40:53.352Z,258.7500
2019-04-23T15:43:17.236Z,270.0000
2019-04-23T15:45:21.007Z,281.2500
2019-04-23T15:46:32.684Z,286.8750
2019-04-23T15:47:40.489Z,286.8750
2019-04-23T15:48:58.125Z,286.8750
2019-04-23T15:50:03.598Z,286.8750
2019-04-23T15:51:04.378Z,286.8750
2019-04-23T15:53:24.915Z,292.5000
2019-04-23T15:54:25.415Z,298.1250
2019-04-23T15:55:28.209Z,298.1250
2019-04-23T15:56:41.017Z,303.7500
2019-04-23T15:59:58.702Z,315.0000
2019-04-23T16:01:15.557Z,315.0000
2019-04-23T16:01:52.332Z,315.0000
2019-04-23T16:02:55.306Z,315.0000
2019-04-23T16:03:59.127Z,315.0000
2019-04-23T16:05:03.652Z,309.3750
2019-04-23T16:06:10.316Z,309.3750
2019-04-23T16:07:32.581Z,298.1250
2019-04-23T16:08:58.945Z,292.5000
2019-04-23T16:10:04.242Z,281.2500
2019-04-23T16:11:15.708Z,281.2500
2019-04-23T16:12:03.419Z,275.6250
2019-04-23T16:13:31.145Z,275.6250
2019-04-23T16:14:35.362Z,281.2500
2019-04-23T16:15:45.402Z,275.6250
2019-04-23T16:18:06.552Z,281.2500
2019-04-23T16:19:07.620Z,281.2500
2019-04-23T16:20:22.193Z,275.6250
2019-04-23T16:22:24.861Z,275.6250
2019-04-23T16:23:38.270Z,281.2500
2019-04-23T16:24:52.254Z,281.2500
2019-04-23T16:25:49.797Z,275.6250
2019-04-23T16:27:04.435Z,264.3750
2019-04-23T16:28:11.543Z,253.1250
2019-04-23T16:30:36.811Z,253.1250
2019-04-23T16:31:38.046Z,253.1250
2019-04-23T16:32:38.046Z,253.1250
2019-04-23T16:33:47.947Z,253.1250
2019-04-23T16:35:06.757Z,247.5000
2019-04-23T16:36:19.208Z,247.5000
2019-04-23T16:37:15.436Z,241.8750
2019-04-23T16:39:24.161Z,236.2500
2019-04-23T16:41:51.649Z,225.0000
2019-04-23T16:42:56.684Z,219.3750
2019-04-23T16:44:09.506Z,213.7500
2019-04-23T16:45:14.976Z,208.1250